createdAt,value
2022-07-26T00:00:58.152Z,20.03
2022-07-26T00:03:29.096Z,19.98
2022-07-26T00:06:00.838Z,19.91
2022-07-26T00:08:29.470Z,19.85
2022-07-26T00:11:07.141Z,19.83
2022-07-26T00:13:37.904Z,19.81
2022-07-26T00:16:09.447Z,19.21
2022-07-26T00:18:41.792Z,19.76
2022-07-26T00:21:28.114Z,19.72
2022-07-26T00:24:19.611Z,19.66
2022-07-26T00:27:16.764Z,19.62
2022-07-26T00:29:48.196Z,19.58
2022-07-26T00:32:17.662Z,19.54
2022-07-26T00:35:45.786Z,19.18
2022-07-26T00:38:27.012Z,19.44
2022-07-26T00:41:03.275Z,19.30
2022-07-26T00:43:35.283Z,19.27
2022-07-26T00:46:04.709Z,19.19
2022-07-26T00:48:33.056Z,19.11
2022-07-26T00:51:01.588Z,18.98
2022-07-26T00:53:31.134Z,18.94
2022-07-26T00:55:59.679Z,18.70
2022-07-26T00:58:27.722Z,18.81
2022-07-26T01:00:57.020Z,18.45
2022-07-26T01:03:24.913Z,18.78
2022-07-26T01:05:58.771Z,18.75
2022-07-26T01:08:27.307Z,18.76
2022-07-26T01:10:55.843Z,18.68
2022-07-26T01:13:25.803Z,18.70
2022-07-26T01:15:54.080Z,18.71
2022-07-26T01:18:23.597Z,18.70
2022-07-26T01:20:52.863Z,18.72
2022-07-26T01:23:22.356Z,18.75
2022-07-26T01:25:50.619Z,18.78
2022-07-26T01:28:20.522Z,18.36
2022-07-26T01:30:50.017Z,18.49
2022-07-26T01:33:19.013Z,18.83
2022-07-26T01:35:48.003Z,18.43
2022-07-26T01:38:16.386Z,18.51
2022-07-26T01:40:46.699Z,18.79
2022-07-26T01:43:15.727Z,18.94
2022-07-26T01:45:44.787Z,18.54
2022-07-26T01:48:12.877Z,18.70
2022-07-26T01:50:41.243Z,18.25
2022-07-26T01:53:10.064Z,18.88
2022-07-26T01:55:38.661Z,18.93
2022-07-26T01:58:09.220Z,18.34
2022-07-26T02:00:38.467Z,19.04
2022-07-26T02:03:07.135Z,18.54
2022-07-26T02:05:36.439Z,18.70
2022-07-26T02:08:05.190Z,19.11
2022-07-26T02:10:47.812Z,19.14
2022-07-26T02:13:18.106Z,19.15
2022-07-26T02:15:47.631Z,19.25
2022-07-26T02:18:16.323Z,19.18
2022-07-26T02:20:45.578Z,19.30
2022-07-26T02:23:15.783Z,18.91
2022-07-26T02:25:44.324Z,19.19
2022-07-26T02:28:16.031Z,19.22
2022-07-26T02:30:49.957Z,19.19
2022-07-26T02:33:21.695Z,19.31
2022-07-26T02:35:51.206Z,19.29
2022-07-26T02:38:23.012Z,19.04
2022-07-26T02:40:56.662Z,18.56
2022-07-26T02:43:26.885Z,19.03
2022-07-26T02:46:01.066Z,18.21
2022-07-26T02:48:31.040Z,19.05
2022-07-26T02:50:59.592Z,19.04
2022-07-26T02:53:28.641Z,19.00
2022-07-26T02:56:05.298Z,18.97
2022-07-26T02:58:33.671Z,19.07
2022-07-26T03:01:03.765Z,18.77
2022-07-26T03:03:36.530Z,19.04
2022-07-26T03:06:05.892Z,19.01
2022-07-26T03:08:34.289Z,18.98
2022-07-26T03:11:11.957Z,18.72
2022-07-26T03:13:41.686Z,18.39
2022-07-26T03:16:12.594Z,18.96
2022-07-26T03:18:42.289Z,18.84
2022-07-26T03:21:11.354Z,19.00
2022-07-26T03:23:40.724Z,19.05
2022-07-26T03:26:11.004Z,19.06
2022-07-26T03:28:42.414Z,19.08
2022-07-26T03:31:13.749Z,19.01
2022-07-26T03:36:26.185Z,19.04
2022-07-26T03:38:55.041Z,16.84
2022-07-26T03:41:24.598Z,18.99
2022-07-26T03:43:53.556Z,18.98
2022-07-26T03:46:23.750Z,19.00
2022-07-26T03:48:52.382Z,18.99
2022-07-26T03:51:22.368Z,18.99
2022-07-26T03:53:51.465Z,18.99
2022-07-26T03:56:29.013Z,18.99
2022-07-26T03:58:57.552Z,18.99
2022-07-26T04:01:27.449Z,18.74
2022-07-26T04:03:55.989Z,18.98
2022-07-26T04:06:25.434Z,18.99
2022-07-26T04:08:54.608Z,18.13
2022-07-26T04:11:23.107Z,18.57
2022-07-26T04:13:57.853Z,19.04
2022-07-26T04:16:29.196Z,19.05
2022-07-26T04:18:58.914Z,19.06
2022-07-26T04:21:27.319Z,19.04
2022-07-26T04:23:55.816Z,19.04
2022-07-26T04:26:24.747Z,18.67
2022-07-26T04:29:03.414Z,19.14
2022-07-26T04:31:38.748Z,19.04
2022-07-26T04:34:09.084Z,18.86
2022-07-26T04:36:41.235Z,19.15
2022-07-26T04:39:13.661Z,18.80
2022-07-26T04:41:46.382Z,18.96
2022-07-26T04:44:18.128Z,18.98
2022-07-26T04:46:58.976Z,18.51
2022-07-26T04:49:41.426Z,17.65
2022-07-26T04:52:09.740Z,19.23
2022-07-26T04:54:37.947Z,19.10
2022-07-26T04:57:09.101Z,18.90
2022-07-26T04:59:37.189Z,19.40
2022-07-26T05:02:14.366Z,19.24
2022-07-26T05:04:45.952Z,19.38
2022-07-26T05:07:19.074Z,18.28
2022-07-26T05:09:55.567Z,18.94
2022-07-26T05:12:23.480Z,19.48
2022-07-26T05:14:52.511Z,19.30
2022-07-26T05:17:23.915Z,19.51
2022-07-26T05:19:58.788Z,19.39
2022-07-26T05:22:31.637Z,19.59
2022-07-26T05:25:01.219Z,19.61
2022-07-26T05:27:30.933Z,19.67
2022-07-26T05:30:02.469Z,19.73
2022-07-26T05:32:32.075Z,19.77
2022-07-26T05:35:04.892Z,19.73
2022-07-26T05:37:33.125Z,19.62
2022-07-26T05:40:19.713Z,19.55
2022-07-26T05:42:47.865Z,19.08
2022-07-26T05:45:16.045Z,19.29
2022-07-26T05:47:50.622Z,20.12
2022-07-26T05:50:18.511Z,20.22
2022-07-26T05:52:46.331Z,20.38
2022-07-26T05:55:14.520Z,20.48
2022-07-26T05:57:42.800Z,20.76
2022-07-26T06:00:11.425Z,20.95
2022-07-26T06:02:41.948Z,21.06
2022-07-26T06:05:11.314Z,21.14
2022-07-26T06:07:39.148Z,21.16
2022-07-26T06:10:40.564Z,21.11
2022-07-26T06:13:56.676Z,20.88
2022-07-26T06:17:22.692Z,20.92
2022-07-26T06:20:07.474Z,20.85
2022-07-26T06:23:40.757Z,20.97
2022-07-26T06:27:23.362Z,21.16
2022-07-26T06:34:54.160Z,21.13
2022-07-26T06:38:42.456Z,19.97
2022-07-26T06:41:44.116Z,21.09
2022-07-26T06:47:46.778Z,21.44
2022-07-26T07:02:30.255Z,22.71
2022-07-26T07:05:27.773Z,22.02
2022-07-26T07:08:06.579Z,22.06
2022-07-26T07:11:07.024Z,20.47
2022-07-26T07:14:12.992Z,20.25
2022-07-26T07:16:55.470Z,21.86
2022-07-26T07:20:05.260Z,21.47
2022-07-26T07:26:25.490Z,21.16
2022-07-26T07:28:55.851Z,21.58
2022-07-26T07:31:48.767Z,20.24
2022-07-26T07:34:37.139Z,21.66
2022-07-26T07:37:11.252Z,21.76
2022-07-26T07:39:52.954Z,21.89
2022-07-26T07:45:48.556Z,22.18
2022-07-26T07:48:24.347Z,21.88
2022-07-26T07:50:59.440Z,21.23
2022-07-26T08:50:44.557Z,28.83
2022-07-26T08:53:14.341Z,29.97
2022-07-26T08:56:05.794Z,31.50
2022-07-26T08:58:30.038Z,31.03
2022-07-26T09:01:09.124Z,30.61
2022-07-26T09:03:38.631Z,31.27
2022-07-26T09:06:21.136Z,30.09
2022-07-26T09:12:14.816Z,30.72
2022-07-26T09:14:43.064Z,32.13
2022-07-26T09:17:10.979Z,33.00
2022-07-26T09:19:38.841Z,32.81
2022-07-26T09:22:12.036Z,32.09
2022-07-26T09:24:42.587Z,31.09
2022-07-26T09:27:13.540Z,30.76
2022-07-26T09:29:47.385Z,31.03
2022-07-26T09:32:21.090Z,30.44
2022-07-26T09:34:53.469Z,29.98
2022-07-26T09:40:55.957Z,30.17
2022-07-26T09:43:25.405Z,30.15
2022-07-26T09:46:21.275Z,30.53
2022-07-26T09:51:39.846Z,32.78
2022-07-26T09:54:09.221Z,32.09
2022-07-26T09:56:48.789Z,31.08
2022-07-26T09:59:21.867Z,32.19
2022-07-26T10:02:06.707Z,33.80
2022-07-26T10:31:23.317Z,37.19
2022-07-26T10:33:58.929Z,36.91
2022-07-26T10:36:30.351Z,36.63
2022-07-26T10:39:13.233Z,36.36
2022-07-26T10:41:44.020Z,35.44
2022-07-26T10:44:21.117Z,34.42
2022-07-26T10:47:01.498Z,33.79
2022-07-26T10:49:33.520Z,33.43
2022-07-26T10:52:16.864Z,32.38
2022-07-26T10:55:17.271Z,31.40
2022-07-26T11:05:57.495Z,29.11
2022-07-26T11:37:05.314Z,28.24
2022-07-26T11:40:29.392Z,28.14
2022-07-26T11:52:03.549Z,26.93
2022-07-26T12:06:40.099Z,28.66
2022-07-26T12:10:02.146Z,28.76
2022-07-26T12:30:30.798Z,28.29
2022-07-26T12:37:41.704Z,27.55
2022-07-26T12:40:23.695Z,27.60
2022-07-26T12:47:30.599Z,24.35
2022-07-26T12:49:59.386Z,24.22
2022-07-26T12:52:27.457Z,23.41
2022-07-26T12:54:56.619Z,24.29
2022-07-26T12:57:24.371Z,24.27
2022-07-26T12:59:52.201Z,24.03
2022-07-26T13:02:20.649Z,23.87
2022-07-26T13:04:49.200Z,23.73
2022-07-26T13:07:29.700Z,23.63
2022-07-26T13:10:33.635Z,23.59
2022-07-26T13:13:05.138Z,23.62
2022-07-26T13:15:59.013Z,23.58
2022-07-26T13:22:34.477Z,24.52
2022-07-26T13:28:45.659Z,25.49
2022-07-26T13:36:16.565Z,26.39
2022-07-26T13:38:44.566Z,26.34
2022-07-26T13:41:18.383Z,26.26
2022-07-26T13:43:46.878Z,26.27
2022-07-26T13:46:14.729Z,26.21
2022-07-26T13:48:59.644Z,26.17
2022-07-26T13:51:45.528Z,26.04
2022-07-26T13:54:13.996Z,25.92
2022-07-26T13:56:44.411Z,25.79
2022-07-26T13:59:12.898Z,25.67
2022-07-26T14:01:42.213Z,25.63
2022-07-26T14:04:13.642Z,25.47
2022-07-26T14:06:41.969Z,25.43
2022-07-26T14:09:11.219Z,25.47
2022-07-26T14:11:39.762Z,25.55
2022-07-26T14:14:09.557Z,25.57
2022-07-26T14:16:37.681Z,25.55
2022-07-26T14:19:06.284Z,25.49
2022-07-26T14:21:43.630Z,25.53
2022-07-26T14:24:20.827Z,25.55
2022-07-26T14:26:48.791Z,25.45
2022-07-26T14:29:17.978Z,25.55
2022-07-26T14:31:45.867Z,25.62
2022-07-26T14:34:14.397Z,25.59
2022-07-26T14:36:42.768Z,25.56
2022-07-26T14:39:10.536Z,25.54
2022-07-26T14:41:41.333Z,25.57
2022-07-26T14:44:13.285Z,24.83
2022-07-26T14:47:15.650Z,25.78
2022-07-26T14:49:43.720Z,25.82
2022-07-26T14:52:39.209Z,25.89
2022-07-26T14:55:30.193Z,25.95
2022-07-26T14:57:57.989Z,25.85
2022-07-26T15:00:25.881Z,25.72
2022-07-26T15:02:55.191Z,25.56
2022-07-26T15:05:23.294Z,25.55
2022-07-26T15:07:51.031Z,25.57
2022-07-26T15:10:29.040Z,25.66
2022-07-26T15:12:56.938Z,25.79
2022-07-26T15:15:24.900Z,25.92
2022-07-26T15:17:53.023Z,25.90
2022-07-26T15:24:50.131Z,25.81
2022-07-26T15:27:17.861Z,25.87
2022-07-26T15:29:46.758Z,26.03
2022-07-26T15:32:14.664Z,26.25
2022-07-26T15:34:42.500Z,26.38
2022-07-26T15:37:24.987Z,26.33
2022-07-26T15:40:02.526Z,25.95
2022-07-26T15:42:56.311Z,25.80
2022-07-26T15:45:47.645Z,25.48
2022-07-26T15:48:57.977Z,25.19
2022-07-26T15:51:53.375Z,25.01
2022-07-26T15:54:22.691Z,24.79
2022-07-26T15:56:51.952Z,24.53
2022-07-26T15:59:21.464Z,24.25
2022-07-26T16:01:49.480Z,24.17
2022-07-26T16:04:17.575Z,24.05
2022-07-26T16:06:45.367Z,23.93
2022-07-26T16:09:17.110Z,23.71
2022-07-26T16:11:46.479Z,23.72
2022-07-26T16:14:18.243Z,23.49
2022-07-26T16:16:46.351Z,23.67
2022-07-26T16:19:14.542Z,23.71
2022-07-26T16:21:42.609Z,23.77
2022-07-26T16:24:11.780Z,23.65
2022-07-26T16:26:40.742Z,23.97
2022-07-26T16:29:08.992Z,24.09
2022-07-26T16:32:19.422Z,24.20
2022-07-26T16:38:15.481Z,24.29
2022-07-26T16:40:54.919Z,24.13
2022-07-26T16:43:57.294Z,24.21
2022-07-26T16:47:16.511Z,24.36
2022-07-26T16:50:49.257Z,24.38
2022-07-26T16:53:56.446Z,24.20
2022-07-26T16:56:24.188Z,24.13
2022-07-26T16:58:51.928Z,24.02
2022-07-26T17:01:19.792Z,23.93
2022-07-26T17:03:49.002Z,23.78
2022-07-26T17:06:16.823Z,23.58
2022-07-26T17:08:44.598Z,23.58
2022-07-26T17:11:12.329Z,23.52
2022-07-26T17:13:40.281Z,23.48
2022-07-26T17:16:08.037Z,23.46
2022-07-26T17:18:35.855Z,23.54
2022-07-26T17:21:05.018Z,23.60
2022-07-26T17:23:32.851Z,23.59
2022-07-26T17:26:00.642Z,23.54
2022-07-26T17:28:28.411Z,23.46
2022-07-26T17:30:56.189Z,23.32
2022-07-26T17:33:23.991Z,23.19
2022-07-26T17:35:51.778Z,23.06
2022-07-26T17:38:20.940Z,22.92
2022-07-26T17:40:51.198Z,22.78
2022-07-26T17:43:18.974Z,22.68
2022-07-26T17:45:46.709Z,22.62
2022-07-26T17:48:14.454Z,22.54
2022-07-26T17:50:42.265Z,22.52
2022-07-26T17:53:10.023Z,22.48
2022-07-26T17:55:39.089Z,22.44
2022-07-26T17:58:06.824Z,22.45
2022-07-26T18:00:34.624Z,22.45
2022-07-26T18:03:02.410Z,22.47
2022-07-26T18:05:35.100Z,22.48
2022-07-26T18:08:05.406Z,22.50
2022-07-26T18:10:33.179Z,22.52
2022-07-26T18:13:02.374Z,22.48
2022-07-26T18:15:30.283Z,22.55
2022-07-26T18:17:58.117Z,22.54
2022-07-26T18:20:26.029Z,22.54
2022-07-26T18:22:55.370Z,22.52
2022-07-26T18:25:23.144Z,22.50
2022-07-26T18:27:51.008Z,22.46
2022-07-26T18:30:20.185Z,22.39
2022-07-26T18:32:47.978Z,22.32
2022-07-26T18:35:15.832Z,22.26
2022-07-26T18:37:43.742Z,22.19
2022-07-26T18:40:12.229Z,22.03
2022-07-26T18:42:40.398Z,22.10
2022-07-26T18:45:08.863Z,22.06
2022-07-26T18:47:37.992Z,22.02
2022-07-26T18:50:07.908Z,21.93
2022-07-26T18:52:36.006Z,21.88
2022-07-26T18:55:07.007Z,21.84
2022-07-26T18:57:35.822Z,21.68
2022-07-26T19:00:06.052Z,21.80
2022-07-26T19:02:33.908Z,21.77
2022-07-26T19:05:03.181Z,21.72
2022-07-26T19:07:31.612Z,21.66
2022-07-26T19:09:59.504Z,21.63
2022-07-26T19:12:28.120Z,21.59
2022-07-26T19:14:56.144Z,21.56
2022-07-26T19:17:24.009Z,21.49
2022-07-26T19:19:51.766Z,21.54
2022-07-26T19:22:21.687Z,21.40
2022-07-26T19:24:49.759Z,21.48
2022-07-26T19:27:17.692Z,21.25
2022-07-26T19:29:48.576Z,21.37
2022-07-26T19:33:27.170Z,21.04
2022-07-26T19:36:36.704Z,20.36
2022-07-26T19:47:17.951Z,20.98
2022-07-26T19:49:45.868Z,20.98
2022-07-26T19:52:13.651Z,20.90
2022-07-26T19:54:41.404Z,20.92
2022-07-26T19:57:09.244Z,20.88
2022-07-26T19:59:37.060Z,20.82
2022-07-26T20:02:41.639Z,20.58
2022-07-26T20:06:07.671Z,20.68
2022-07-26T20:09:07.055Z,19.54
2022-07-26T20:15:22.693Z,20.50
2022-07-26T20:22:01.566Z,20.36
2022-07-26T20:25:24.420Z,20.29
2022-07-26T20:29:01.827Z,20.19
2022-07-26T20:48:24.494Z,18.53
2022-07-26T20:51:01.439Z,18.24
2022-07-26T21:39:23.862Z,19.67
2022-07-26T21:47:46.699Z,19.67
2022-07-26T21:50:19.387Z,19.67
2022-07-26T22:50:01.506Z,17.66
2022-07-26T22:57:51.203Z,19.51
2022-07-26T23:06:02.143Z,18.24
2022-07-26T23:36:59.855Z,18.60
2022-07-26T23:40:21.638Z,18.32
2022-07-26T23:43:21.513Z,18.16
2022-07-26T23:49:39.254Z,18.68
2022-07-26T23:55:44.334Z,18.76
2022-07-26T23:58:42.996Z,17.41
